Gary, Texas
Current Conditions -  °F | °C
As of 12:15 PM on Saturday 22 Nov 2014 (Local Time) from KRFI Reporting Station
Scattered Clouds Scattered Clouds  
Wind Chill: 71°   Ceiling: Unl
Heat Index: 71°   Visibility: 10mi
Dew Point: 58°   Wind: 8mph
Humidity: 63%   Direction: 160°SSE
Pressure: 30.05"   Gusts: NA
Location:  32.03°N, 94.37°W
Report Text: KRFI 221815Z AUTO 16007KT 10SM SCT030 22/14 A3005 RMK AO2 T02150142
Loading
Personal Weather Stations






























Interactive Weather Map New forecast layout! Learn more

10-Day Weather Forecast

Advertisements
Track Severe Weather on mobile